createdAt,value
2022-09-09T00:02:30.424Z,99801.50
2022-09-09T00:07:41.946Z,99812.56
2022-09-09T00:12:53.489Z,99805.34
2022-09-09T00:18:00.162Z,99808.31
2022-09-09T00:23:08.992Z,99808.56
2022-09-09T00:28:19.501Z,99798.06
2022-09-09T00:33:23.323Z,99798.25
2022-09-09T00:38:29.840Z,99797.59
2022-09-09T00:43:32.738Z,99804.66
2022-09-09T00:48:42.746Z,99802.09
2022-09-09T00:54:06.701Z,99791.00
2022-09-09T00:59:19.223Z,99811.59
2022-09-09T01:04:31.794Z,99809.13
2022-09-09T01:09:44.446Z,99812.47
2022-09-09T01:14:52.175Z,99807.50
2022-09-09T01:20:03.651Z,99815.16
2022-09-09T01:25:33.624Z,99816.75
2022-09-09T01:30:45.007Z,99810.31
2022-09-09T01:35:55.583Z,99807.41
2022-09-09T01:40:59.939Z,99804.81
2022-09-09T01:46:13.190Z,99804.22
2022-09-09T01:51:15.477Z,99801.50
2022-09-09T01:56:30.558Z,99799.22
2022-09-09T02:01:47.943Z,99801.97
2022-09-09T02:06:51.824Z,99791.09
2022-09-09T02:12:08.131Z,99796.13
2022-09-09T02:17:21.286Z,99801.22
2022-09-09T02:22:35.076Z,99800.53
2022-09-09T02:27:37.010Z,99806.56
2022-09-09T02:32:41.814Z,99799.06
2022-09-09T02:37:48.037Z,99804.22
2022-09-09T02:42:51.327Z,99805.31
2022-09-09T02:48:05.636Z,99796.81
2022-09-09T02:53:16.391Z,99800.16
2022-09-09T02:58:20.198Z,99801.13
2022-09-09T03:03:40.837Z,99801.97
2022-09-09T03:08:49.502Z,99802.06
2022-09-09T03:13:56.936Z,99809.13
2022-09-09T03:19:00.545Z,99801.25
2022-09-09T03:24:04.276Z,99810.19
2022-09-09T03:29:07.467Z,99819.75
2022-09-09T03:34:10.345Z,99811.56
2022-09-09T03:39:11.600Z,99812.81
2022-09-09T03:44:15.544Z,99810.34
2022-09-09T03:49:19.018Z,99805.28
2022-09-09T03:54:20.735Z,99812.50
2022-09-09T03:59:22.228Z,99810.81
2022-09-09T04:04:24.315Z,99810.09
2022-09-09T04:09:25.113Z,99802.91
2022-09-09T04:14:29.723Z,99814.13
2022-09-09T04:19:32.586Z,99823.41
2022-09-09T04:24:33.251Z,99813.97
2022-09-09T04:29:35.441Z,99822.69
2022-09-09T04:34:38.316Z,99819.13
2022-09-09T04:39:38.971Z,99820.63
2022-09-09T04:44:41.776Z,99827.53
2022-09-09T04:49:44.176Z,99820.25
2022-09-09T04:54:45.895Z,99818.25
2022-09-09T04:59:46.821Z,99823.13
2022-09-09T05:04:50.510Z,99822.00
2022-09-09T05:09:51.323Z,99826.06
2022-09-09T05:14:52.643Z,99826.34
2022-09-09T05:19:54.662Z,99830.38
2022-09-09T05:24:55.315Z,99833.41
2022-09-09T05:29:57.839Z,99838.28
2022-09-09T05:34:59.968Z,99828.56
2022-09-09T05:40:01.743Z,99843.19
2022-09-09T05:45:02.534Z,99849.63
2022-09-09T05:50:05.379Z,99846.09
2022-09-09T05:55:07.328Z,99861.03
2022-09-09T06:00:09.694Z,99868.00
2022-09-09T06:05:16.168Z,99868.19
2022-09-09T06:10:17.419Z,99864.63
2022-09-09T06:15:18.350Z,99864.19
2022-09-09T06:20:21.047Z,99867.81
2022-09-09T06:25:21.938Z,99868.75
2022-09-09T06:30:22.646Z,99862.28
2022-09-09T06:35:25.081Z,99866.00
2022-09-09T06:40:25.997Z,99859.16
2022-09-09T06:45:27.425Z,99863.44
2022-09-09T06:50:33.537Z,99864.25
2022-09-09T06:55:34.375Z,99852.16
2022-09-09T07:00:35.445Z,99856.59
2022-09-09T07:05:38.079Z,99854.88
2022-09-09T07:10:38.812Z,99856.97
2022-09-09T07:15:40.035Z,99849.09
2022-09-09T07:20:42.378Z,99854.13
2022-09-09T07:25:47.149Z,99847.16
2022-09-09T07:30:56.030Z,99860.06
2022-09-09T07:36:05.627Z,99856.34
2022-09-09T07:41:09.668Z,99851.94
2022-09-09T07:46:11.451Z,99854.91
2022-09-09T07:51:19.323Z,99863.31
2022-09-09T07:56:20.846Z,99858.06
2022-09-09T08:01:23.737Z,99863.06
2022-09-09T08:06:25.946Z,99867.72
2022-09-09T08:11:28.741Z,99869.97
2022-09-09T08:16:32.005Z,99867.72
2022-09-09T08:21:37.661Z,99869.44
2022-09-09T08:26:40.633Z,99873.41
2022-09-09T08:31:43.372Z,99881.78
2022-09-09T08:36:47.745Z,99872.31
2022-09-09T08:42:10.473Z,99882.16
2022-09-09T08:47:23.896Z,99872.00
2022-09-09T08:52:31.843Z,99884.47
2022-09-09T08:57:34.269Z,99878.50
2022-09-09T09:02:46.528Z,99885.84
2022-09-09T09:08:01.164Z,99877.78
2022-09-09T09:13:05.603Z,99875.81
2022-09-09T09:18:07.599Z,99885.03
2022-09-09T09:23:21.475Z,99892.38
2022-09-09T09:28:26.754Z,99921.59
2022-09-09T09:33:41.528Z,99912.16
2022-09-09T09:44:30.565Z,99908.13
2022-09-09T09:49:37.850Z,99911.06
2022-09-09T09:54:44.148Z,99908.13
2022-09-09T09:59:45.261Z,99904.84
2022-09-09T10:05:03.299Z,99898.41
2022-09-09T10:10:08.209Z,99897.91
2022-09-09T10:15:25.168Z,99890.66
2022-09-09T10:20:38.629Z,99886.63
2022-09-09T10:25:57.394Z,99886.88
2022-09-09T10:31:10.745Z,99880.31
2022-09-09T10:36:15.798Z,99877.19
2022-09-09T10:41:34.562Z,99878.19
2022-09-09T10:46:54.513Z,99870.38
2022-09-09T10:52:04.186Z,99867.31
2022-09-09T10:57:15.205Z,99852.00
2022-09-09T11:02:21.859Z,99840.34
2022-09-09T11:07:30.105Z,99839.19
2022-09-09T11:12:35.251Z,99832.84
2022-09-09T11:17:44.382Z,99835.00
2022-09-09T11:22:50.918Z,99836.22
2022-09-09T11:28:13.437Z,99845.63
2022-09-09T11:33:48.184Z,99844.41
2022-09-09T11:38:52.689Z,99827.81
2022-09-09T11:43:55.071Z,99814.97
2022-09-09T11:49:01.671Z,99811.75
2022-09-09T11:54:04.308Z,99814.72
2022-09-09T11:59:08.295Z,99817.59
2022-09-09T12:04:30.881Z,99816.53
2022-09-09T12:09:47.469Z,99807.72
2022-09-09T12:15:01.244Z,99803.19
2022-09-09T12:20:07.049Z,99789.56
2022-09-09T12:25:23.260Z,99783.38
2022-09-09T12:30:31.861Z,99789.31
2022-09-09T12:35:33.293Z,99785.91
2022-09-09T12:40:36.469Z,99782.78
2022-09-09T12:45:43.244Z,99776.81
2022-09-09T12:50:47.340Z,99777.59
2022-09-09T12:55:53.186Z,99778.28
2022-09-09T13:00:57.423Z,99768.91
2022-09-09T13:06:01.575Z,99759.06
2022-09-09T13:11:06.145Z,99750.09
2022-09-09T13:16:20.393Z,99749.09
2022-09-09T13:21:21.672Z,99743.66
2022-09-09T13:26:25.452Z,99734.72
2022-09-09T13:31:32.735Z,99729.66
2022-09-09T13:36:36.925Z,99730.63
2022-09-09T13:41:45.185Z,99738.69
2022-09-09T13:46:47.159Z,99741.09
2022-09-09T13:51:51.571Z,99746.66
2022-09-09T13:56:52.418Z,99743.53
2022-09-09T14:01:54.733Z,99756.06
2022-09-09T14:06:57.476Z,99739.34
2022-09-09T14:11:58.613Z,99736.69
2022-09-09T14:17:04.234Z,99738.72
2022-09-09T14:22:08.095Z,99728.53
2022-09-09T14:27:08.877Z,99712.50
2022-09-09T14:32:12.881Z,99710.44
2022-09-09T14:37:13.761Z,99706.34
2022-09-09T14:42:15.813Z,99699.66
2022-09-09T14:47:17.977Z,99700.28
2022-09-09T14:52:18.633Z,99706.03
2022-09-09T14:57:19.299Z,99707.22
2022-09-09T15:02:21.376Z,99703.50
2022-09-09T15:07:23.239Z,99717.16
2022-09-09T15:12:23.858Z,99704.91
2022-09-09T15:17:26.767Z,99705.59
2022-09-09T15:22:27.656Z,99705.22
2022-09-09T15:27:28.195Z,99720.72
2022-09-09T15:32:30.180Z,99717.00
2022-09-09T15:37:30.732Z,99715.59
2022-09-09T15:42:31.550Z,99730.00
2022-09-09T15:47:34.149Z,99737.56
2022-09-09T15:52:34.762Z,99724.38
2022-09-09T15:57:35.596Z,99717.84
2022-09-09T16:02:38.074Z,99712.16
2022-09-09T16:07:38.779Z,99709.56
2022-09-09T16:12:40.454Z,99719.34
2022-09-09T16:17:42.353Z,99719.00
2022-09-09T16:22:43.112Z,99722.28
2022-09-09T16:27:44.716Z,99711.72
2022-09-09T16:32:46.625Z,99724.13
2022-09-09T16:37:47.197Z,99736.50
2022-09-09T16:42:47.755Z,99734.06
2022-09-09T16:47:49.960Z,99740.81
2022-09-09T16:52:50.522Z,99750.34
2022-09-09T16:57:51.093Z,99744.34
2022-09-09T17:02:53.052Z,99757.44
2022-09-09T17:07:53.708Z,99759.84
2022-09-09T17:12:54.302Z,99762.97
2022-09-09T17:17:56.216Z,99766.88
2022-09-09T17:22:57.196Z,99763.53
2022-09-09T17:27:59.004Z,99771.06
2022-09-09T17:33:00.957Z,99770.28
2022-09-09T17:38:01.555Z,99781.22
2022-09-09T17:43:02.412Z,99772.09
2022-09-09T17:48:05.053Z,99778.88
2022-09-09T17:53:05.644Z,99781.47
2022-09-09T17:58:06.306Z,99804.63
2022-09-09T18:03:08.482Z,99813.78
2022-09-09T18:08:09.085Z,99823.94
2022-09-09T18:13:10.019Z,99835.19
2022-09-09T18:18:11.887Z,99841.81
2022-09-09T18:23:12.599Z,99831.84
2022-09-09T18:28:13.845Z,99836.28
2022-09-09T18:33:15.889Z,99824.53
2022-09-09T18:38:17.586Z,99820.25
2022-09-09T18:43:18.703Z,99821.06
2022-09-09T18:48:20.713Z,99836.75
2022-09-09T18:53:23.154Z,99842.63
2022-09-09T18:58:24.985Z,99842.09
2022-09-09T19:03:28.393Z,99843.22
2022-09-09T19:08:28.969Z,99847.75
2022-09-09T19:13:29.792Z,99845.06
2022-09-09T19:18:31.879Z,99842.75
2022-09-09T19:23:33.006Z,99846.91
2022-09-09T19:28:33.989Z,99845.22
2022-09-09T19:33:37.025Z,99853.06
2022-09-09T19:38:37.674Z,99846.03
2022-09-09T19:43:38.810Z,99858.81
2022-09-09T19:48:42.474Z,99864.28
2022-09-09T19:53:45.330Z,99854.03
2022-09-09T19:58:47.776Z,99858.31
2022-09-09T20:03:52.301Z,99860.78
2022-09-09T20:08:53.793Z,99862.88
2022-09-09T20:13:55.153Z,99876.16
2022-09-09T20:18:58.808Z,99879.41
2022-09-09T20:24:01.487Z,99873.50
2022-09-09T20:29:04.733Z,99880.66
2022-09-09T20:34:08.895Z,99880.66
2022-09-09T20:39:11.891Z,99880.59
2022-09-09T20:44:15.483Z,99888.38
2022-09-09T20:49:19.232Z,99892.19
2022-09-09T20:54:21.284Z,99899.25
2022-09-09T20:59:23.977Z,99899.97
2022-09-09T21:04:26.290Z,99895.91
2022-09-09T21:09:26.960Z,99903.22
2022-09-09T21:14:28.277Z,99906.97
2022-09-09T21:19:30.179Z,99905.16
2022-09-09T21:24:30.882Z,99901.78
2022-09-09T21:29:31.712Z,99905.09
2022-09-09T21:34:34.910Z,99898.81
2022-09-09T21:39:40.878Z,99897.63
2022-09-09T21:44:42.076Z,99900.38
2022-09-09T21:49:44.048Z,99903.28
2022-09-09T21:54:44.653Z,99901.81
2022-09-09T21:59:45.254Z,99895.44
2022-09-09T22:04:47.161Z,99899.31
2022-09-09T22:09:47.746Z,99893.94
2022-09-09T22:14:48.695Z,99891.19
2022-09-09T22:19:50.775Z,99888.31
2022-09-09T22:24:51.922Z,99886.50
2022-09-09T22:29:52.493Z,99887.44
2022-09-09T22:34:54.452Z,99885.91
2022-09-09T22:39:55.041Z,99880.09
2022-09-09T22:44:55.613Z,99882.16
2022-09-09T22:49:58.208Z,99883.16
2022-09-09T22:54:59.469Z,99866.69
2022-09-09T23:00:00.106Z,99869.03
2022-09-09T23:05:04.352Z,99859.88
2022-09-09T23:10:06.168Z,99857.22
2022-09-09T23:15:10.405Z,99854.03
2022-09-09T23:20:12.434Z,99854.31
2022-09-09T23:25:13.096Z,99852.25
2022-09-09T23:30:14.623Z,99863.41
2022-09-09T23:35:16.830Z,99867.97
2022-09-09T23:40:17.592Z,99867.84
2022-09-09T23:45:18.455Z,99867.31
2022-09-09T23:50:20.963Z,99863.94
2022-09-09T23:55:22.029Z,99871.22
